Time;durP1;ratioP1;P1;durP2;ratioP2;P2;SDS_P1;SDS_P2;PMS_P1;PMS_P2;Temp;Humidity;BMP_temperature;BMP_pressure;BME280_temperature;BME280_humidity;BME280_pressure;Samples;Min_cycle;Max_cycle;Signal;HPM_P1;HPM_P2
2022/12/07 00:01:29;;;;;;;;;30.33;25.00;;;;;;;;5098712;27;46183;-63
2022/12/07 00:04:03;;;;;;;;;23.00;20.00;;;;;;;;5098771;27;45386;-63
2022/12/07 00:06:29;;;;;;;;;32.67;28.00;;;;;;;;5109845;27;45460;-63
2022/12/07 00:08:54;;;;;;;;;33.33;25.00;;;;;;;;5119499;27;45758;-62
2022/12/07 00:11:23;;;;;;;;;46.67;36.00;;;;;;;;5117646;27;47364;-63
2022/12/07 00:13:52;;;;;;;;;30.00;28.33;;;;;;;;5117855;27;45499;-63
2022/12/07 00:16:19;;;;;;;;;38.00;28.33;;;;;;;;5120937;27;45440;-63
2022/12/07 00:18:44;;;;;;;;;24.67;24.00;;;;;;;;5118255;27;45415;-62
2022/12/07 00:21:10;;;;;;;;;27.33;24.33;;;;;;;;5118551;27;46284;-63
2022/12/07 00:23:36;;;;;;;;;21.67;21.33;;;;;;;;5117515;27;45436;-63
2022/12/07 00:26:08;;;;;;;;;24.67;21.67;;;;;;;;5117668;27;46549;-63
2022/12/07 00:28:33;;;;;;;;;28.00;21.33;;;;;;;;5117800;27;45849;-63
2022/12/07 00:31:00;;;;;;;;;28.67;20.33;;;;;;;;5118233;27;46278;-63
2022/12/07 00:33:25;;;;;;;;;24.00;22.00;;;;;;;;5100564;27;45371;-63
2022/12/07 00:35:55;;;;;;;;;20.00;19.67;;;;;;;;5109103;27;45383;-63
2022/12/07 00:38:20;;;;;;;;;27.33;21.67;;;;;;;;5103862;27;45557;-63
2022/12/07 00:40:53;;;;;;;;;24.00;22.00;;;;;;;;5118830;27;46386;-63
2022/12/07 00:43:18;;;;;;;;;21.00;20.33;;;;;;;;5118758;27;45311;-63
2022/12/07 00:45:43;;;;;;;;;23.00;19.00;;;;;;;;5118605;27;45366;-63
2022/12/07 00:48:08;;;;;;;;;23.33;22.00;;;;;;;;5119047;27;45280;-62
2022/12/07 00:50:34;;;;;;;;;18.00;15.33;;;;;;;;5118760;27;45516;-63
2022/12/07 00:52:59;;;;;;;;;19.00;17.33;;;;;;;;5114869;27;45402;-63
2022/12/07 00:55:24;;;;;;;;;26.33;21.00;;;;;;;;5098029;27;45250;-63
2022/12/07 00:57:49;;;;;;;;;22.33;18.33;;;;;;;;5098066;27;45310;-63
2022/12/07 01:00:14;;;;;;;;;21.67;20.67;;;;;;;;5097452;27;45489;-63
2022/12/07 01:02:40;;;;;;;;;23.33;21.00;;;;;;;;5097825;27;45488;-63
2022/12/07 01:05:06;;;;;;;;;30.00;24.67;;;;;;;;5097900;27;45499;-63
2022/12/07 01:07:31;;;;;;;;;22.33;21.00;;;;;;;;5097762;27;45420;-63
2022/12/07 01:09:56;;;;;;;;;27.67;23.00;;;;;;;;5113677;27;45259;-63
2022/12/07 01:12:21;;;;;;;;;26.67;21.33;;;;;;;;5118419;27;45468;-62
2022/12/07 01:14:46;;;;;;;;;19.67;17.33;;;;;;;;5118366;27;45150;-63
2022/12/07 01:17:12;;;;;;;;;14.67;10.67;;;;;;;;5118683;27;45345;-62
2022/12/07 01:19:37;;;;;;;;;15.33;15.33;;;;;;;;5118091;27;45620;-62
2022/12/07 01:22:02;;;;;;;;;26.67;22.67;;;;;;;;5117921;27;45449;-62
2022/12/07 01:24:27;;;;;;;;;22.00;16.00;;;;;;;;5104698;27;45959;-63
2022/12/07 01:26:52;;;;;;;;;31.67;21.33;;;;;;;;5115260;27;45496;-63
2022/12/07 01:29:18;;;;;;;;;20.33;18.00;;;;;;;;5118175;27;46218;-63
2022/12/07 01:31:43;;;;;;;;;21.00;17.33;;;;;;;;5117899;27;45388;-63
2022/12/07 01:34:08;;;;;;;;;21.00;20.00;;;;;;;;5118328;27;45254;-63
2022/12/07 01:36:35;;;;;;;;;26.00;21.00;;;;;;;;5118226;27;45331;-63
2022/12/07 01:39:02;;;;;;;;;28.00;21.00;;;;;;;;5111394;27;45902;-63
2022/12/07 01:41:31;;;;;;;;;27.67;21.00;;;;;;;;5116031;27;45479;-63
2022/12/07 01:44:11;;;;;;;;;24.00;20.33;;;;;;;;5117889;27;45461;-63
2022/12/07 01:46:37;;;;;;;;;26.00;20.33;;;;;;;;5117987;27;45341;-62
2022/12/07 01:49:03;;;;;;;;;23.67;19.00;;;;;;;;5117925;27;46165;-63
2022/12/07 01:51:29;;;;;;;;;27.00;19.33;;;;;;;;5117874;27;45406;-63
2022/12/07 01:53:54;;;;;;;;;23.33;21.00;;;;;;;;5117452;27;45760;-63
2022/12/07 01:56:23;;;;;;;;;22.00;18.33;;;;;;;;5117115;27;45327;-62
2022/12/07 01:58:49;;;;;;;;;23.67;18.00;;;;;;;;5117391;27;45612;-63
2022/12/07 02:01:14;;;;;;;;;25.67;20.67;;;;;;;;5117852;27;45436;-63
2022/12/07 02:03:41;;;;;;;;;28.00;22.67;;;;;;;;5117565;27;45314;-63
2022/12/07 02:06:07;;;;;;;;;24.00;21.33;;;;;;;;5117497;27;45268;-63
2022/12/07 02:08:32;;;;;;;;;25.33;20.67;;;;;;;;5117358;27;45478;-63
2022/12/07 02:10:57;;;;;;;;;27.33;21.67;;;;;;;;5117899;27;45341;-63
2022/12/07 02:13:24;;;;;;;;;28.00;20.67;;;;;;;;5106103;27;45303;-63
2022/12/07 02:15:49;;;;;;;;;27.00;23.67;;;;;;;;5100904;27;45372;-63
2022/12/07 02:18:30;;;;;;;;;28.67;24.33;;;;;;;;5117989;27;45937;-63
2022/12/07 02:20:55;;;;;;;;;28.00;23.33;;;;;;;;5120721;27;45507;-63
2022/12/07 02:23:38;;;;;;;;;24.00;18.00;;;;;;;;5121011;27;45438;-63
2022/12/07 02:26:09;;;;;;;;;30.67;26.00;;;;;;;;5121070;27;45551;-63
2022/12/07 02:28:36;;;;;;;;;21.33;21.33;;;;;;;;5111914;27;45843;-63
2022/12/07 02:31:11;;;;;;;;;27.33;27.00;;;;;;;;5110382;27;45243;-63
2022/12/07 02:33:56;;;;;;;;;36.33;24.00;;;;;;;;5121222;27;45430;-63
2022/12/07 02:36:25;;;;;;;;;28.00;17.00;;;;;;;;5120352;27;45260;-63
2022/12/07 02:38:59;;;;;;;;;28.00;22.00;;;;;;;;5120474;27;45452;-63
2022/12/07 02:41:28;;;;;;;;;26.00;21.00;;;;;;;;5120781;27;45255;-63
2022/12/07 02:44:02;;;;;;;;;19.67;19.00;;;;;;;;5120585;27;45701;-62
2022/12/07 02:46:30;;;;;;;;;27.33;22.00;;;;;;;;5115301;27;45456;-63
2022/12/07 02:48:55;;;;;;;;;22.33;17.00;;;;;;;;5120516;27;46527;-63
2022/12/07 02:51:21;;;;;;;;;19.33;17.33;;;;;;;;5120458;27;45431;-63
2022/12/07 02:53:46;;;;;;;;;26.00;25.33;;;;;;;;5120313;27;45464;-63
2022/12/07 02:56:30;;;;;;;;;25.67;21.67;;;;;;;;5120772;27;45472;-63
2022/12/07 02:59:01;;;;;;;;;22.00;19.00;;;;;;;;5120140;27;45475;-63
2022/12/07 03:01:26;;;;;;;;;25.00;22.00;;;;;;;;5116540;27;45485;-63
2022/12/07 03:03:58;;;;;;;;;31.67;23.67;;;;;;;;5099958;27;45433;-63
2022/12/07 03:06:28;;;;;;;;;28.67;20.67;;;;;;;;5100080;27;45357;-63
2022/12/07 03:09:20;;;;;;;;;16.00;16.00;;;;;;;;5099397;27;45426;-63
2022/12/07 03:11:57;;;;;;;;;27.00;22.00;;;;;;;;5099462;27;45509;-63
2022/12/07 03:14:36;;;;;;;;;24.67;20.33;;;;;;;;5108662;27;45491;-63
2022/12/07 03:17:12;;;;;;;;;23.00;19.33;;;;;;;;5120454;27;45468;-63
2022/12/07 03:19:39;;;;;;;;;20.00;16.67;;;;;;;;5114713;27;45514;-63
2022/12/07 03:22:10;;;;;;;;;17.00;16.33;;;;;;;;5103867;27;45404;-63
2022/12/07 03:24:49;;;;;;;;;25.67;19.67;;;;;;;;5119383;27;45354;-63
2022/12/07 03:27:26;;;;;;;;;16.00;15.00;;;;;;;;5120286;27;45476;-63
2022/12/07 03:29:56;;;;;;;;;24.00;17.67;;;;;;;;5118206;27;46804;-63
2022/12/07 03:32:31;;;;;;;;;18.33;14.67;;;;;;;;5119383;27;45432;-63
2022/12/07 03:35:02;;;;;;;;;20.00;14.33;;;;;;;;5120004;27;45440;-63
2022/12/07 03:37:36;;;;;;;;;26.00;22.33;;;;;;;;5101050;27;45412;-63
2022/12/07 03:40:22;;;;;;;;;27.00;19.33;;;;;;;;5097678;27;46276;-63
2022/12/07 03:42:47;;;;;;;;;22.33;22.00;;;;;;;;5112194;27;45352;-62
2022/12/07 03:45:13;;;;;;;;;23.00;19.33;;;;;;;;5117908;27;45660;-63
2022/12/07 03:47:46;;;;;;;;;23.67;19.67;;;;;;;;5120118;27;45451;-63
2022/12/07 03:50:15;;;;;;;;;28.33;21.33;;;;;;;;5119708;27;46669;-62
2022/12/07 03:52:47;;;;;;;;;18.33;18.33;;;;;;;;5115621;27;45335;-62
2022/12/07 03:55:27;;;;;;;;;25.33;15.00;;;;;;;;5098769;27;45378;-63
2022/12/07 03:57:55;;;;;;;;;19.00;17.00;;;;;;;;5099294;27;45318;-63
2022/12/07 04:00:20;;;;;;;;;17.33;14.33;;;;;;;;5098593;27;46592;-63
2022/12/07 04:02:45;;;;;;;;;17.67;12.33;;;;;;;;5098842;27;45200;-62
2022/12/07 04:05:11;;;;;;;;;16.00;16.00;;;;;;;;5098849;27;45438;-63
2022/12/07 04:07:36;;;;;;;;;27.67;18.00;;;;;;;;5112058;27;45439;-62
2022/12/07 04:10:02;;;;;;;;;17.67;14.00;;;;;;;;5098450;27;46532;-62
2022/12/07 04:12:27;;;;;;;;;16.00;14.67;;;;;;;;5112494;27;45524;-63
2022/12/07 04:14:52;;;;;;;;;16.00;14.33;;;;;;;;5119300;27;45689;-62
2022/12/07 04:17:17;;;;;;;;;11.00;10.00;;;;;;;;5119272;27;45410;-63
2022/12/07 04:19:42;;;;;;;;;12.67;10.67;;;;;;;;5119053;27;45927;-62
2022/12/07 04:22:08;;;;;;;;;13.25;11.50;;;;;;;;5118928;27;45430;-63
2022/12/07 04:24:33;;;;;;;;;11.67;11.67;;;;;;;;5119168;27;45369;-63
2022/12/07 04:26:58;;;;;;;;;15.33;12.33;;;;;;;;5118133;27;45420;-63
2022/12/07 04:29:24;;;;;;;;;15.33;12.67;;;;;;;;5119049;27;46505;-62
2022/12/07 04:31:49;;;;;;;;;15.00;11.75;;;;;;;;5118832;27;45371;-63
2022/12/07 04:34:15;;;;;;;;;22.33;13.67;;;;;;;;5118779;27;45323;-63
2022/12/07 04:36:41;;;;;;;;;16.67;13.67;;;;;;;;5118119;27;45464;-63
2022/12/07 04:39:08;;;;;;;;;20.50;10.25;;;;;;;;5118666;27;47020;-63
2022/12/07 04:41:33;;;;;;;;;13.33;12.00;;;;;;;;5118774;27;45387;-62
2022/12/07 04:43:59;;;;;;;;;22.00;15.00;;;;;;;;5110225;27;45599;-63
2022/12/07 04:46:25;;;;;;;;;15.33;11.67;;;;;;;;5098299;27;45431;-63
2022/12/07 04:48:50;;;;;;;;;15.33;11.67;;;;;;;;5097883;27;45150;-63
2022/12/07 04:51:18;;;;;;;;;30.67;27.67;;;;;;;;5104930;27;45536;-62
2022/12/07 04:53:43;;;;;;;;;16.67;14.00;;;;;;;;5118855;27;45391;-63
2022/12/07 04:56:09;;;;;;;;;12.00;12.00;;;;;;;;5118722;27;45373;-63
2022/12/07 04:58:34;;;;;;;;;14.67;12.33;;;;;;;;5118574;27;45605;-62
2022/12/07 05:00:59;;;;;;;;;14.00;11.00;;;;;;;;5103848;27;45455;-63
2022/12/07 05:03:24;;;;;;;;;14.67;10.33;;;;;;;;5118725;27;45585;-63
2022/12/07 05:05:49;;;;;;;;;12.25;10.00;;;;;;;;5118727;27;45452;-62
2022/12/07 05:08:15;;;;;;;;;24.00;22.33;;;;;;;;5117874;27;46415;-62
2022/12/07 05:10:40;;;;;;;;;26.00;18.00;;;;;;;;5118409;27;45342;-62
2022/12/07 05:13:05;;;;;;;;;20.00;16.00;;;;;;;;5118156;27;45410;-62
2022/12/07 05:15:30;;;;;;;;;21.00;16.33;;;;;;;;5109227;27;45519;-63
2022/12/07 05:17:55;;;;;;;;;14.33;10.33;;;;;;;;5097735;27;45391;-63
2022/12/07 05:20:21;;;;;;;;;17.00;11.67;;;;;;;;5097298;27;45560;-62
2022/12/07 05:22:46;;;;;;;;;20.33;15.00;;;;;;;;5114364;27;45468;-62
2022/12/07 05:25:11;;;;;;;;;13.33;10.00;;;;;;;;5118298;27;46074;-62
2022/12/07 05:27:36;;;;;;;;;14.00;9.00;;;;;;;;5118388;27;45359;-62
2022/12/07 05:30:02;;;;;;;;;16.67;15.00;;;;;;;;5118326;27;45747;-62
2022/12/07 05:32:27;;;;;;;;;22.00;19.33;;;;;;;;5102774;27;45503;-63
2022/12/07 05:34:54;;;;;;;;;8.75;7.50;;;;;;;;5111511;27;45401;-62
2022/12/07 05:37:19;;;;;;;;;18.00;12.00;;;;;;;;5117912;27;46161;-62
2022/12/07 05:39:45;;;;;;;;;12.67;10.67;;;;;;;;5117936;27;45488;-63
2022/12/07 05:42:13;;;;;;;;;9.00;7.67;;;;;;;;5117274;27;45749;-63
2022/12/07 05:44:39;;;;;;;;;9.67;8.00;;;;;;;;5118316;27;45456;-62
2022/12/07 05:47:04;;;;;;;;;6.33;4.67;;;;;;;;5108975;27;46388;-63
2022/12/07 05:49:30;;;;;;;;;11.67;7.33;;;;;;;;5101086;27;45514;-62
2022/12/07 05:51:55;;;;;;;;;6.00;6.00;;;;;;;;5108577;27;45510;-63
2022/12/07 05:54:20;;;;;;;;;9.00;7.25;;;;;;;;5121720;27;45460;-63
2022/12/07 05:56:45;;;;;;;;;8.00;4.50;;;;;;;;5121181;27;46439;-62
2022/12/07 05:59:23;;;;;;;;;9.25;7.25;;;;;;;;5121643;27;45348;-62
2022/12/07 06:01:49;;;;;;;;;19.00;11.00;;;;;;;;5120132;27;45456;-62
2022/12/07 06:04:14;;;;;;;;;13.67;11.67;;;;;;;;5121377;27;45531;-63
2022/12/07 06:06:39;;;;;;;;;6.75;4.00;;;;;;;;5121104;27;45424;-62
2022/12/07 06:09:04;;;;;;;;;7.75;6.75;;;;;;;;5121317;27;45433;-62
2022/12/07 06:14:13;;;;;;;;;10.25;8.00;;;;;;;;5121642;27;45393;-62
2022/12/07 06:16:39;;;;;;;;;7.00;7.00;;;;;;;;5120882;27;45407;-62
2022/12/07 06:19:04;;;;;;;;;8.25;5.25;;;;;;;;5109308;27;45520;-62
2022/12/07 06:21:29;;;;;;;;;6.00;4.75;;;;;;;;5100592;27;45295;-62
2022/12/07 06:23:55;;;;;;;;;10.67;8.33;;;;;;;;5100540;27;45540;-62
2022/12/07 06:26:20;;;;;;;;;5.00;5.00;;;;;;;;5104817;27;45785;-62
2022/12/07 06:28:45;;;;;;;;;9.33;8.00;;;;;;;;5121001;27;45291;-62
2022/12/07 06:31:11;;;;;;;;;15.33;10.67;;;;;;;;5119962;27;45255;-62
2022/12/07 06:33:36;;;;;;;;;8.50;6.75;;;;;;;;5118721;27;45157;-62
2022/12/07 06:36:01;;;;;;;;;20.00;16.00;;;;;;;;5116877;27;46363;-62
2022/12/07 06:38:26;;;;;;;;;8.00;4.67;;;;;;;;5110129;27;45383;-63
2022/12/07 06:40:52;;;;;;;;;8.50;8.00;;;;;;;;5120965;27;45292;-62
2022/12/07 06:43:17;;;;;;;;;7.67;7.67;;;;;;;;5121014;27;45565;-63
2022/12/07 06:45:42;;;;;;;;;2.50;2.50;;;;;;;;5117132;27;46489;-63
2022/12/07 06:48:07;;;;;;;;;4.75;4.75;;;;;;;;5108155;27;45412;-62
2022/12/07 06:50:33;;;;;;;;;10.25;10.00;;;;;;;;5119432;27;46203;-62
2022/12/07 06:52:58;;;;;;;;;30.33;28.33;;;;;;;;5120730;27;45346;-62
2022/12/07 06:55:23;;;;;;;;;13.67;11.00;;;;;;;;5120337;27;45564;-62
2022/12/07 06:57:48;;;;;;;;;11.33;8.33;;;;;;;;5119447;27;45509;-62
2022/12/07 07:00:14;;;;;;;;;13.33;12.00;;;;;;;;5120068;27;45520;-62
2022/12/07 07:02:39;;;;;;;;;20.33;14.00;;;;;;;;5120365;27;45456;-63
2022/12/07 07:05:04;;;;;;;;;14.25;9.75;;;;;;;;5120317;27;45452;-62
2022/12/07 07:07:29;;;;;;;;;8.25;5.50;;;;;;;;5120556;27;45377;-62
2022/12/07 07:09:55;;;;;;;;;8.33;6.67;;;;;;;;5104168;27;45404;-62
2022/12/07 07:12:20;;;;;;;;;5.00;5.00;;;;;;;;5118701;27;45472;-62
2022/12/07 07:14:45;;;;;;;;;13.25;7.25;;;;;;;;5120212;27;45534;-62
2022/12/07 07:17:10;;;;;;;;;4.00;4.00;;;;;;;;5120037;27;45743;-62
2022/12/07 07:19:37;;;;;;;;;9.75;8.25;;;;;;;;5118824;27;45235;-62
2022/12/07 07:22:02;;;;;;;;;7.75;4.00;;;;;;;;5120276;27;45412;-62
2022/12/07 07:24:27;;;;;;;;;5.50;5.50;;;;;;;;5119679;27;45833;-63
2022/12/07 07:26:52;;;;;;;;;4.50;3.00;;;;;;;;5119618;27;45319;-63
2022/12/07 07:29:18;;;;;;;;;4.00;4.00;;;;;;;;5119715;27;45458;-63
2022/12/07 07:31:43;;;;;;;;;4.75;2.00;;;;;;;;5120446;27;45425;-63
2022/12/07 07:34:08;;;;;;;;;4.75;3.25;;;;;;;;5117128;27;46711;-62
2022/12/07 07:36:33;;;;;;;;;4.00;4.00;;;;;;;;5103129;27;45461;-63
2022/12/07 07:38:58;;;;;;;;;4.00;4.00;;;;;;;;5119691;27;45465;-63
2022/12/07 07:41:24;;;;;;;;;3.00;3.00;;;;;;;;5120039;27;45428;-62
2022/12/07 07:43:49;;;;;;;;;6.50;6.50;;;;;;;;5119730;27;46278;-62
2022/12/07 07:46:14;;;;;;;;;2.50;2.50;;;;;;;;5119715;27;45395;-62
2022/12/07 07:48:39;;;;;;;;;2.00;2.00;;;;;;;;5119755;27;45347;-62
2022/12/07 07:51:06;;;;;;;;;4.75;4.00;;;;;;;;5120124;27;45318;-63
2022/12/07 07:53:32;;;;;;;;;5.00;3.50;;;;;;;;5119492;27;46722;-63
2022/12/07 07:55:57;;;;;;;;;3.00;2.75;;;;;;;;5119807;27;45636;-63
2022/12/07 07:58:22;;;;;;;;;14.67;11.33;;;;;;;;5119576;27;45515;-62
2022/12/07 08:00:47;;;;;;;;;13.33;8.67;;;;;;;;5119977;27;45313;-63
2022/12/07 08:03:12;;;;;;;;;9.50;7.75;;;;;;;;5119306;27;47488;-62
2022/12/07 08:05:38;;;;;;;;;5.00;5.00;;;;;;;;5119313;27;46599;-62
2022/12/07 08:08:03;;;;;;;;;25.33;25.33;;;;;;;;5119603;27;45412;-63
2022/12/07 08:10:28;;;;;;;;;23.00;18.67;;;;;;;;5119310;27;45378;-63
2022/12/07 08:13:13;;;;;;;;;13.00;10.67;;;;;;;;5119155;27;46500;-62
2022/12/07 08:15:39;;;;;;;;;18.00;16.33;;;;;;;;5119364;27;45723;-62
2022/12/07 08:18:05;;;;;;;;;7.75;6.25;;;;;;;;5119168;27;45451;-62
2022/12/07 08:20:31;;;;;;;;;10.67;8.33;;;;;;;;5119075;27;45504;-62
2022/12/07 08:22:56;;;;;;;;;4.00;4.00;;;;;;;;5119162;27;45406;-63
2022/12/07 08:25:24;;;;;;;;;10.67;9.00;;;;;;;;5118897;27;45297;-62
2022/12/07 08:27:50;;;;;;;;;17.33;15.67;;;;;;;;5119298;27;45370;-63
2022/12/07 08:30:16;;;;;;;;;13.67;10.33;;;;;;;;5119121;27;45500;-63
2022/12/07 08:32:41;;;;;;;;;8.75;8.75;;;;;;;;5117375;27;45360;-62
2022/12/07 08:35:08;;;;;;;;;8.00;5.50;;;;;;;;5119042;27;45365;-62
2022/12/07 08:37:33;;;;;;;;;6.33;5.00;;;;;;;;5119086;27;45329;-62
2022/12/07 08:39:58;;;;;;;;;17.00;12.00;;;;;;;;5119196;27;45493;-62
2022/12/07 08:42:27;;;;;;;;;9.67;8.00;;;;;;;;5118611;27;46546;-62
2022/12/07 08:44:52;;;;;;;;;17.33;12.33;;;;;;;;5118582;27;45376;-63
2022/12/07 08:47:18;;;;;;;;;15.33;10.33;;;;;;;;5118993;27;45325;-63
2022/12/07 08:49:46;;;;;;;;;15.33;12.33;;;;;;;;5119087;27;45498;-63
2022/12/07 08:52:12;;;;;;;;;14.67;10.33;;;;;;;;5118155;27;45466;-63
2022/12/07 08:54:38;;;;;;;;;12.00;10.00;;;;;;;;5118515;27;45419;-63
2022/12/07 08:57:04;;;;;;;;;14.00;13.67;;;;;;;;5118646;27;45341;-62
2022/12/07 08:59:30;;;;;;;;;10.50;8.00;;;;;;;;5118808;27;45520;-62
2022/12/07 09:01:55;;;;;;;;;9.00;7.75;;;;;;;;5118524;27;46194;-63
2022/12/07 09:04:20;;;;;;;;;94.75;90.75;;;;;;;;5118348;27;45507;-62
2022/12/07 09:06:46;;;;;;;;;22.00;21.67;;;;;;;;5118492;27;45516;-62
2022/12/07 09:09:12;;;;;;;;;15.67;13.33;;;;;;;;5118699;27;45471;-63
2022/12/07 09:11:39;;;;;;;;;11.75;9.00;;;;;;;;5118558;27;46202;-63
2022/12/07 09:14:04;;;;;;;;;11.50;6.00;;;;;;;;5118125;27;45354;-62
2022/12/07 09:16:29;;;;;;;;;10.75;8.75;;;;;;;;5118369;27;45289;-63
2022/12/07 09:18:54;;;;;;;;;7.50;7.50;;;;;;;;5118815;27;45410;-63
2022/12/07 09:21:19;;;;;;;;;10.00;8.50;;;;;;;;5117158;27;45427;-63
2022/12/07 09:23:45;;;;;;;;;69.50;55.50;;;;;;;;5118323;27;45375;-62
2022/12/07 09:26:10;;;;;;;;;18.00;16.00;;;;;;;;5117983;27;45646;-62
2022/12/07 09:28:35;;;;;;;;;6.75;4.50;;;;;;;;5118262;27;45327;-63
2022/12/07 09:31:01;;;;;;;;;10.75;8.25;;;;;;;;5118185;27;45348;-63
2022/12/07 09:33:27;;;;;;;;;6.75;6.00;;;;;;;;5118112;27;45195;-63
2022/12/07 09:35:52;;;;;;;;;6.00;6.00;;;;;;;;5118461;27;45674;-63
2022/12/07 09:38:18;;;;;;;;;11.50;9.00;;;;;;;;5118464;27;45389;-63
2022/12/07 09:40:44;;;;;;;;;12.67;12.67;;;;;;;;5117897;27;45772;-63
2022/12/07 09:43:23;;;;;;;;;6.75;5.50;;;;;;;;5117989;27;45460;-62
2022/12/07 09:45:51;;;;;;;;;7.25;6.00;;;;;;;;5117997;27;45365;-62
2022/12/07 09:48:17;;;;;;;;;7.00;7.00;;;;;;;;5118277;27;45728;-62
2022/12/07 09:50:43;;;;;;;;;10.00;10.00;;;;;;;;5117715;27;47372;-63
2022/12/07 09:53:13;;;;;;;;;8.75;6.25;;;;;;;;5117779;27;45447;-62
2022/12/07 09:55:40;;;;;;;;;13.00;7.75;;;;;;;;5118093;27;45305;-62
2022/12/07 09:58:05;;;;;;;;;10.00;7.25;;;;;;;;5117727;27;45439;-62
2022/12/07 10:00:31;;;;;;;;;74.33;54.33;;;;;;;;5117574;27;46465;-62
2022/12/07 10:03:00;;;;;;;;;81.75;61.25;;;;;;;;5117700;27;45453;-62
2022/12/07 10:05:30;;;;;;;;;64.00;50.00;;;;;;;;5117751;27;45278;-62
2022/12/07 10:07:56;;;;;;;;;21.33;19.00;;;;;;;;5117711;27;45688;-63
2022/12/07 10:10:39;;;;;;;;;12.00;9.00;;;;;;;;5117571;27;45539;-63
2022/12/07 10:13:08;;;;;;;;;14.67;12.67;;;;;;;;5117751;27;45697;-63
2022/12/07 10:15:48;;;;;;;;;20.33;17.33;;;;;;;;5117611;27;45525;-63
2022/12/07 10:18:31;;;;;;;;;12.00;10.00;;;;;;;;5117709;27;45338;-63
2022/12/07 10:21:07;;;;;;;;;28.33;27.33;;;;;;;;5117147;27;46405;-63
2022/12/07 10:23:33;;;;;;;;;9.75;5.75;;;;;;;;5117583;27;45392;-63
2022/12/07 10:25:58;;;;;;;;;7.00;7.00;;;;;;;;5117474;27;45397;-63
2022/12/07 10:28:33;;;;;;;;;25.67;24.00;;;;;;;;5117358;27;45513;-62
2022/12/07 10:31:03;;;;;;;;;21.33;20.33;;;;;;;;5117419;27;46694;-62
2022/12/07 10:33:48;;;;;;;;;21.67;15.67;;;;;;;;5118064;27;45326;-62
2022/12/07 10:36:22;;;;;;;;;47.67;39.33;;;;;;;;5120898;27;45377;-63
2022/12/07 10:38:50;;;;;;;;;38.33;31.33;;;;;;;;5121005;27;45606;-63
2022/12/07 10:41:16;;;;;;;;;19.67;19.67;;;;;;;;5120669;27;46318;-62
2022/12/07 10:43:59;;;;;;;;;24.00;22.67;;;;;;;;5120729;27;45380;-62
2022/12/07 10:46:33;;;;;;;;;12.00;9.33;;;;;;;;5120560;27;45808;-63
2022/12/07 10:49:17;;;;;;;;;20.33;18.67;;;;;;;;5120912;27;45551;-63
2022/12/07 10:51:45;;;;;;;;;11.00;9.00;;;;;;;;5120455;27;45524;-63
2022/12/07 10:54:31;;;;;;;;;23.00;21.67;;;;;;;;5120646;27;45355;-63
2022/12/07 10:57:13;;;;;;;;;38.33;32.33;;;;;;;;5116496;27;45393;-63
2022/12/07 10:59:41;;;;;;;;;23.67;21.00;;;;;;;;5120551;27;45788;-63
2022/12/07 11:02:06;;;;;;;;;15.33;14.33;;;;;;;;5120111;27;45335;-63
2022/12/07 11:04:37;;;;;;;;;25.00;18.00;;;;;;;;5120543;27;45621;-63
2022/12/07 11:07:06;;;;;;;;;37.00;32.33;;;;;;;;5120267;27;45314;-63
2022/12/07 11:09:37;;;;;;;;;59.33;44.33;;;;;;;;5120344;27;45616;-63
2022/12/07 11:12:05;;;;;;;;;54.00;42.67;;;;;;;;5120323;27;46066;-63
2022/12/07 11:14:39;;;;;;;;;21.00;21.00;;;;;;;;5119948;27;45377;-63
2022/12/07 11:17:09;;;;;;;;;45.67;36.33;;;;;;;;5120304;27;45301;-63
2022/12/07 11:19:35;;;;;;;;;19.00;14.33;;;;;;;;5120510;27;45454;-63
2022/12/07 11:22:12;;;;;;;;;10.75;9.00;;;;;;;;5119631;27;46519;-63
2022/12/07 11:24:46;;;;;;;;;27.00;22.33;;;;;;;;5120212;27;45306;-63
2022/12/07 11:27:20;;;;;;;;;18.00;17.67;;;;;;;;5120144;27;45382;-63
2022/12/07 11:29:45;;;;;;;;;16.25;12.00;;;;;;;;5120316;27;45390;-63
2022/12/07 11:32:19;;;;;;;;;13.67;12.67;;;;;;;;5119915;27;45533;-63
2022/12/07 11:34:47;;;;;;;;;17.67;15.67;;;;;;;;5120089;27;45405;-63
2022/12/07 11:37:15;;;;;;;;;33.33;32.00;;;;;;;;5118963;27;45799;-63
2022/12/07 11:39:50;;;;;;;;;17.33;16.00;;;;;;;;5121575;27;45415;-63
2022/12/07 11:42:24;;;;;;;;;14.33;11.67;;;;;;;;5120728;27;45658;-63
2022/12/07 11:44:49;;;;;;;;;13.67;12.33;;;;;;;;5117609;27;46177;-64
2022/12/07 11:47:22;;;;;;;;;9.25;9.25;;;;;;;;5121428;27;45511;-64
2022/12/07 11:49:54;;;;;;;;;23.00;19.00;;;;;;;;5119084;27;45482;-64
2022/12/07 11:52:26;;;;;;;;;11.33;8.67;;;;;;;;5118490;27;46317;-64
2022/12/07 11:54:52;;;;;;;;;15.67;12.67;;;;;;;;5113409;27;45699;-64
2022/12/07 11:57:20;;;;;;;;;14.25;8.25;;;;;;;;5118836;27;45446;-64
2022/12/07 11:59:49;;;;;;;;;11.00;9.25;;;;;;;;5119122;27;45409;-64
2022/12/07 12:02:28;;;;;;;;;21.33;17.33;;;;;;;;5118763;27;46332;-64
2022/12/07 12:04:56;;;;;;;;;13.50;10.50;;;;;;;;5117755;27;45435;-65
2022/12/07 12:07:23;;;;;;;;;15.00;13.67;;;;;;;;5100707;27;45624;-64
2022/12/07 12:09:58;;;;;;;;;11.00;8.50;;;;;;;;5111477;27;45399;-64
2022/12/07 12:12:23;;;;;;;;;11.75;10.75;;;;;;;;5106049;27;45564;-64
2022/12/07 12:14:54;;;;;;;;;17.00;16.00;;;;;;;;5118448;27;45553;-64
2022/12/07 12:17:25;;;;;;;;;7.00;5.00;;;;;;;;5118730;27;45773;-64
2022/12/07 12:20:03;;;;;;;;;6.25;6.25;;;;;;;;5118896;27;45549;-64
2022/12/07 12:22:42;;;;;;;;;5.00;4.00;;;;;;;;5116007;27;46852;-64
2022/12/07 12:25:15;;;;;;;;;5.25;1.00;;;;;;;;5111498;27;45528;-65
2022/12/07 12:27:46;;;;;;;;;7.50;6.00;;;;;;;;5113780;27;45506;-64
2022/12/07 12:30:25;;;;;;;;;7.25;6.75;;;;;;;;5113691;27;45567;-64
2022/12/07 12:32:51;;;;;;;;;9.67;8.00;;;;;;;;5097600;27;45536;-63
2022/12/07 12:35:22;;;;;;;;;5.00;4.00;;;;;;;;5104238;27;45422;-63
2022/12/07 12:37:48;;;;;;;;;15.00;10.67;;;;;;;;5107989;27;45566;-64
2022/12/07 12:40:16;;;;;;;;;20.67;17.67;;;;;;;;5117460;27;45515;-63
2022/12/07 12:42:44;;;;;;;;;26.00;19.33;;;;;;;;5117931;27;46403;-63
2022/12/07 12:45:19;;;;;;;;;20.67;20.33;;;;;;;;5116774;27;45522;-63
2022/12/07 12:47:57;;;;;;;;;20.33;15.33;;;;;;;;5121077;27;45408;-63
2022/12/07 12:50:25;;;;;;;;;37.67;33.00;;;;;;;;5111278;27;45475;-63
2022/12/07 12:52:52;;;;;;;;;33.00;26.33;;;;;;;;5111920;27;45476;-63
2022/12/07 12:55:20;;;;;;;;;25.33;21.33;;;;;;;;5104442;27;45828;-63
2022/12/07 12:57:46;;;;;;;;;40.00;35.33;;;;;;;;5108203;27;45911;-62
2022/12/07 13:00:19;;;;;;;;;22.67;19.33;;;;;;;;5114836;27;45432;-63
2022/12/07 13:02:53;;;;;;;;;15.67;13.67;;;;;;;;5136132;27;47255;-63
2022/12/07 13:05:20;;;;;;;;;22.33;14.00;;;;;;;;5114741;27;45840;-63
2022/12/07 13:07:51;;;;;;;;;34.33;26.33;;;;;;;;5109210;27;45466;-63
2022/12/07 13:10:31;;;;;;;;;32.67;30.00;;;;;;;;5106383;27;45382;-63
2022/12/07 13:12:56;;;;;;;;;20.33;17.00;;;;;;;;5096882;27;46672;-63
2022/12/07 13:15:40;;;;;;;;;17.67;17.00;;;;;;;;5096864;27;45388;-63
2022/12/07 13:18:24;;;;;;;;;18.67;9.00;;;;;;;;5104029;27;46580;-63
2022/12/07 13:20:51;;;;;;;;;15.00;13.67;;;;;;;;5110804;27;45406;-64
2022/12/07 13:23:19;;;;;;;;;7.25;7.25;;;;;;;;5117062;27;46258;-63
2022/12/07 13:26:04;;;;;;;;;7.00;7.00;;;;;;;;5117468;27;45791;-62
2022/12/07 13:28:38;;;;;;;;;14.67;13.33;;;;;;;;5094668;27;45619;-63
2022/12/07 13:31:16;;;;;;;;;4.50;4.50;;;;;;;;5094723;27;45521;-63
2022/12/07 13:33:45;;;;;;;;;6.75;2.75;;;;;;;;5092643;27;46130;-63
2022/12/07 13:36:23;;;;;;;;;8.75;7.75;;;;;;;;5093854;27;45531;-63
2022/12/07 13:38:50;;;;;;;;;13.33;11.33;;;;;;;;5094688;27;45557;-63
2022/12/07 13:41:17;;;;;;;;;9.50;8.75;;;;;;;;5090075;27;45471;-63
2022/12/07 13:43:43;;;;;;;;;6.00;5.00;;;;;;;;5094078;27;45656;-63
2022/12/07 13:46:09;;;;;;;;;10.50;10.50;;;;;;;;5094068;27;45470;-62
2022/12/07 13:48:44;;;;;;;;;8.00;7.75;;;;;;;;5094269;27;45583;-63
2022/12/07 13:51:16;;;;;;;;;4.50;4.50;;;;;;;;5094003;27;45503;-63
2022/12/07 13:53:46;;;;;;;;;8.75;5.25;;;;;;;;5092032;27;46544;-63
2022/12/07 13:56:14;;;;;;;;;12.00;9.00;;;;;;;;5082402;27;45509;-62
2022/12/07 13:58:39;;;;;;;;;8.50;7.00;;;;;;;;5084783;27;45484;-62
2022/12/07 14:01:05;;;;;;;;;4.25;4.00;;;;;;;;5094324;27;45460;-63
2022/12/07 14:03:32;;;;;;;;;12.00;7.00;;;;;;;;5074961;27;47688;-63
2022/12/07 14:06:26;;;;;;;;;10.00;7.75;;;;;;;;5094435;27;45445;-63
2022/12/07 14:09:10;;;;;;;;;7.75;7.75;;;;;;;;5105337;27;45464;-63
2022/12/07 14:11:37;;;;;;;;;11.67;11.67;;;;;;;;5104333;27;45462;-63
2022/12/07 14:14:03;;;;;;;;;10.75;9.25;;;;;;;;5120850;27;46692;-63
2022/12/07 14:16:30;;;;;;;;;7.50;5.75;;;;;;;;5120580;27;45500;-63
2022/12/07 14:18:57;;;;;;;;;10.75;8.50;;;;;;;;5120420;27;45365;-63
2022/12/07 14:21:24;;;;;;;;;4.00;3.50;;;;;;;;5110171;27;45555;-63
2022/12/07 14:24:04;;;;;;;;;5.25;5.25;;;;;;;;5099633;27;46080;-63
2022/12/07 14:26:30;;;;;;;;;9.50;9.00;;;;;;;;5102708;27;45846;-64
2022/12/07 14:29:15;;;;;;;;;6.50;5.50;;;;;;;;5138952;27;45393;-64
2022/12/07 14:31:40;;;;;;;;;11.25;9.50;;;;;;;;5140890;27;45723;-64
2022/12/07 14:34:11;;;;;;;;;6.75;6.75;;;;;;;;5140493;27;46416;-64